• Join FlightAware (Why Join?)
  • Login
  • US Flag 
03:15AM EDT


 

Airport Tracker/Info


-or-


 

Live Flight TrackerFlight Track Log ✈ N516QS ✈ 08-Jul-2013 ✈ KHYA - KHPN

Flight Track Log - Related Links

Times and Time Zones

All times are in EDT time to prevent confusion due to time zone crossing. See the N516QS flight status page for this flight to view local times or setup timezone preferences in your user account.

Time Position Orientation Groundspeed Altitude Reporting Facility
EDT Latitude Longitude Course Direction KTS MPH feet Rate Location/Type
11:33AM 41.6256 -70.4100 270° West 199 229 6,400  Level Boston Center
11:34AM 41.6500 -70.4953 291° West 211 243 9,000 2,400 Climbing Boston Center
11:35AM 41.6603 -70.6006 277° West 253 291 11,200 2,100 Climbing Boston Center
11:36AM 41.6703 -70.7197 276° West 302 348 13,200 2,100 Climbing Boston Center
11:37AM 41.6936 -70.9663 276° West  Level FlightAware Approximate
11:37AM 41.6786 -70.8531 275° West 331 381 15,500  Level Boston Center
11:38AM 41.7000 -71.0831 270° West  Level FlightAware Approximate
11:38AM 41.6886 -70.9694 277° West 338 389 16,000  Level Boston Center
11:39AM 41.6986 -71.1111 275° West 350 403 16,000  Level Boston Center
11:40AM 41.7103 -71.2247 278° West 355 409 16,000  Level Boston Center
11:41AM 41.7575 -71.3547 296° West 349 402 16,000  Level Boston Center
11:42AM 41.8000 -71.4597 299° West 356 410 16,000  Level Boston Center
11:43AM 41.8197 -71.5767 283° West 355 409 16,000  Level Boston Center
11:44AM 41.8375 -71.7350 279° West 355 409 16,000  Level Boston Center
11:45AM 41.8508 -71.8547 279° West 361 415 16,000 -300 Level Boston Center
11:46AM 41.8661 -71.9997 278° West 361 415 15,500 -540 Descending Boston Center
11:47AM 41.8789 -72.1167 278° West 366 421 15,000 -600 Descending Boston Center
11:48AM 41.8939 -72.2617 278° West 366 421 14,300 -480 Descending Boston Center
11:49AM 41.9064 -72.3731 279° West 353 406 14,100 -120 Descending Boston Center
11:50AM 41.9231 -72.5153 279° West 353 406 14,100  Level Boston Center
11:51AM 41.9356 -72.6439 277° West 353 406 14,100 -420 Level Boston Center
11:52AM 41.9081 -72.7664 253° West 339 390 13,300 -840 Descending Boston Center
11:53AM 41.8703 -72.8556 240° Southwest 339 390 12,300 -600 Descending Boston Center
11:54AM 41.8114 -73.0028 242° Southwest 334 384 12,000 -120 Descending Boston Center
11:55AM 41.7692 -73.1053 241° Southwest 339 390 12,100  Climbing Boston Center
11:56AM 41.7183 -73.2244 240° Southwest 339 390 12,000 -540 Descending Boston Center
11:58AM 41.6333 -73.4167 239° Southwest 282 325 10,600 -900 Descending New York TRACON
11:59AM 41.6000 -73.5000 242° Southwest 272 313 9,400 -1,380 Descending New York TRACON
12:00PM 41.5333 -73.5500 209° Southwest 286 329 7,900 -1,560 Descending New York TRACON
12:01PM 41.4333 -73.5500 180° South 281 323 6,200 -1,500 Descending New York TRACON
12:02PM 41.3833 -73.5667 194° South 273 314 4,900 -1,200 Descending New York TRACON
12:03PM 41.3000 -73.5667 180° South 265 305 4,000 -900 Descending New York TRACON
12:04PM 41.2333 -73.5833 191° South 247 284 3,200 -960 Descending New York TRACON
12:05PM 41.1667 -73.5833 180° South 233 268 2,100 -600 Descending New York TRACON
12:06PM 41.1167 -73.6000 194° South 207 238 2,000 -60 Descending New York TRACON
12:07PM 41.0500 -73.5833 169° South 209 241 2,000  Level New York TRACON
12:08PM 41.0000 -73.5833 180° South 186 214 2,000  Level New York TRACON
12:09PM 41.0000 -73.6333 270° West 169 194 2,000 -420 Level New York TRACON
12:10PM 41.0167 -73.6667 304° West 155 178 1,200 -780 Descending New York TRACON
12:11PM 41.0500 -73.7000 323° Northwest 122 140 500 -660 Descending New York TRACON
12:13PM 41.0669 -73.7076 346° North  Level Estimated
12:20PM 41.0669 -73.7076 153° Southeast  Level Estimated